sensor_id;sensor_type;location;lat;lon;timestamp;pressure;altitude;pressure_sealevel;temperature;humidity
49915;BME280;35806;47.958;13.158;2023-08-12T00:00:27;95208.91;;;18.22;52.02
49915;BME280;35806;47.958;13.158;2023-08-12T00:02:54;95206.60;;;18.10;52.32
49915;BME280;35806;47.958;13.158;2023-08-12T00:05:22;95203.00;;;18.11;53.37
49915;BME280;35806;47.958;13.158;2023-08-12T00:07:49;95203.84;;;18.07;54.15
49915;BME280;35806;47.958;13.158;2023-08-12T00:10:17;95205.33;;;18.34;53.89
49915;BME280;35806;47.958;13.158;2023-08-12T00:12:44;95204.59;;;18.13;53.46
49915;BME280;35806;47.958;13.158;2023-08-12T00:15:12;95197.92;;;18.04;53.29
49915;BME280;35806;47.958;13.158;2023-08-12T00:17:39;95199.30;;;17.66;51.82
49915;BME280;35806;47.958;13.158;2023-08-12T00:20:08;95197.16;;;17.26;51.43
49915;BME280;35806;47.958;13.158;2023-08-12T00:22:35;95193.60;;;17.87;51.36
49915;BME280;35806;47.958;13.158;2023-08-12T00:25:03;95191.88;;;17.51;53.19
49915;BME280;35806;47.958;13.158;2023-08-12T00:27:30;95189.98;;;17.49;54.11
49915;BME280;35806;47.958;13.158;2023-08-12T00:29:58;95188.04;;;17.81;54.32
49915;BME280;35806;47.958;13.158;2023-08-12T00:32:25;95188.45;;;17.42;55.25
49915;BME280;35806;47.958;13.158;2023-08-12T00:34:53;95183.79;;;18.17;54.97
49915;BME280;35806;47.958;13.158;2023-08-12T00:37:20;95180.23;;;18.15;54.23
49915;BME280;35806;47.958;13.158;2023-08-12T00:39:47;95179.68;;;17.64;53.55
49915;BME280;35806;47.958;13.158;2023-08-12T00:42:15;95174.18;;;18.22;52.48
49915;BME280;35806;47.958;13.158;2023-08-12T00:44:42;95175.00;;;17.54;53.33
49915;BME280;35806;47.958;13.158;2023-08-12T00:47:09;95174.88;;;17.62;53.49
49915;BME280;35806;47.958;13.158;2023-08-12T00:49:39;95173.96;;;18.01;53.13
49915;BME280;35806;47.958;13.158;2023-08-12T00:52:06;95173.56;;;17.71;52.08
49915;BME280;35806;47.958;13.158;2023-08-12T00:54:34;95172.18;;;17.66;52.84
49915;BME280;35806;47.958;13.158;2023-08-12T00:57:02;95170.77;;;18.08;52.02
49915;BME280;35806;47.958;13.158;2023-08-12T00:59:30;95169.14;;;17.79;51.83
49915;BME280;35806;47.958;13.158;2023-08-12T01:15:59;95153.35;;;17.56;51.71
49915;BME280;35806;47.958;13.158;2023-08-12T01:18:28;95147.88;;;18.11;52.18
49915;BME280;35806;47.958;13.158;2023-08-12T01:20:55;95147.59;;;18.16;52.99
49915;BME280;35806;47.958;13.158;2023-08-12T01:23:22;95146.04;;;17.93;53.07
49915;BME280;35806;47.958;13.158;2023-08-12T01:25:50;95141.91;;;17.79;53.61
49915;BME280;35806;47.958;13.158;2023-08-12T01:28:18;95141.11;;;17.49;52.49
49915;BME280;35806;47.958;13.158;2023-08-12T01:30:49;95136.55;;;17.37;52.99
49915;BME280;35806;47.958;13.158;2023-08-12T01:33:24;95132.99;;;17.82;53.46
49915;BME280;35806;47.958;13.158;2023-08-12T01:36:00;95134.64;;;17.51;53.93
49915;BME280;35806;47.958;13.158;2023-08-12T01:38:31;95134.91;;;17.62;54.23
49915;BME280;35806;47.958;13.158;2023-08-12T01:41:00;95134.38;;;17.55;54.40
49915;BME280;35806;47.958;13.158;2023-08-12T01:43:28;95131.54;;;17.07;54.25
49915;BME280;35806;47.958;13.158;2023-08-12T01:45:56;95129.35;;;16.96;54.69
49915;BME280;35806;47.958;13.158;2023-08-12T01:48:33;95130.13;;;16.95;53.41
49915;BME280;35806;47.958;13.158;2023-08-12T01:51:00;95130.35;;;16.96;54.08
49915;BME280;35806;47.958;13.158;2023-08-12T01:53:28;95128.72;;;17.20;54.25
49915;BME280;35806;47.958;13.158;2023-08-12T01:55:56;95126.27;;;17.16;55.09
49915;BME280;35806;47.958;13.158;2023-08-12T01:58:23;95128.00;;;16.75;54.90
49915;BME280;35806;47.958;13.158;2023-08-12T02:00:51;95123.63;;;17.00;55.04
49915;BME280;35806;47.958;13.158;2023-08-12T02:03:18;95120.37;;;17.20;55.49
49915;BME280;35806;47.958;13.158;2023-08-12T02:05:46;95120.41;;;16.59;54.60
49915;BME280;35806;47.958;13.158;2023-08-12T02:08:13;95118.64;;;17.11;54.06
49915;BME280;35806;47.958;13.158;2023-08-12T02:10:41;95114.91;;;16.97;54.12
49915;BME280;35806;47.958;13.158;2023-08-12T02:13:08;95114.48;;;16.81;53.99
49915;BME280;35806;47.958;13.158;2023-08-12T02:15:36;95111.58;;;16.66;52.36
49915;BME280;35806;47.958;13.158;2023-08-12T02:18:04;95109.66;;;16.54;51.39
49915;BME280;35806;47.958;13.158;2023-08-12T02:20:32;95107.50;;;16.47;51.58
49915;BME280;35806;47.958;13.158;2023-08-12T02:22:59;95104.21;;;16.38;50.88
49915;BME280;35806;47.958;13.158;2023-08-12T02:25:27;95104.89;;;16.32;51.27
49915;BME280;35806;47.958;13.158;2023-08-12T02:27:54;95102.81;;;16.37;53.27
49915;BME280;35806;47.958;13.158;2023-08-12T02:30:22;95103.12;;;16.68;52.77
49915;BME280;35806;47.958;13.158;2023-08-12T02:32:49;95103.87;;;16.87;54.16
49915;BME280;35806;47.958;13.158;2023-08-12T02:35:18;95104.72;;;16.62;54.31
49915;BME280;35806;47.958;13.158;2023-08-12T02:37:45;95106.52;;;16.49;53.98
49915;BME280;35806;47.958;13.158;2023-08-12T02:40:14;95106.20;;;16.24;51.25
49915;BME280;35806;47.958;13.158;2023-08-12T02:42:41;95104.70;;;16.44;52.61
49915;BME280;35806;47.958;13.158;2023-08-12T02:45:14;95105.89;;;16.39;52.54
49915;BME280;35806;47.958;13.158;2023-08-12T02:47:42;95103.42;;;16.18;52.12
49915;BME280;35806;47.958;13.158;2023-08-12T02:50:09;95102.18;;;16.58;53.94
49915;BME280;35806;47.958;13.158;2023-08-12T02:52:37;95101.66;;;16.31;52.71
49915;BME280;35806;47.958;13.158;2023-08-12T02:55:04;95102.41;;;16.79;52.65
49915;BME280;35806;47.958;13.158;2023-08-12T02:57:32;95101.64;;;16.64;53.01
49915;BME280;35806;47.958;13.158;2023-08-12T02:59:59;95098.52;;;16.77;52.42
49915;BME280;35806;47.958;13.158;2023-08-12T03:02:27;95101.14;;;16.88;51.94
49915;BME280;35806;47.958;13.158;2023-08-12T03:04:54;95096.22;;;16.83;53.44
49915;BME280;35806;47.958;13.158;2023-08-12T03:07:22;95098.12;;;16.38;51.38
49915;BME280;35806;47.958;13.158;2023-08-12T03:09:49;95097.69;;;16.67;53.56
49915;BME280;35806;47.958;13.158;2023-08-12T03:12:17;95094.20;;;16.43;53.64
49915;BME280;35806;47.958;13.158;2023-08-12T03:14:44;95095.25;;;16.36;53.25
49915;BME280;35806;47.958;13.158;2023-08-12T03:17:12;95091.83;;;16.50;53.98
49915;BME280;35806;47.958;13.158;2023-08-12T03:19:39;95090.76;;;16.40;53.93
49915;BME280;35806;47.958;13.158;2023-08-12T03:22:07;95093.13;;;16.37;54.53
49915;BME280;35806;47.958;13.158;2023-08-12T03:24:34;95094.58;;;16.10;54.47
49915;BME280;35806;47.958;13.158;2023-08-12T03:27:02;95091.72;;;16.32;54.44
49915;BME280;35806;47.958;13.158;2023-08-12T03:29:30;95089.97;;;16.38;54.81
49915;BME280;35806;47.958;13.158;2023-08-12T03:31:57;95089.23;;;16.16;54.82
49915;BME280;35806;47.958;13.158;2023-08-12T03:34:27;95089.71;;;16.27;54.82
49915;BME280;35806;47.958;13.158;2023-08-12T03:36:55;95089.34;;;16.10;54.68
49915;BME280;35806;47.958;13.158;2023-08-12T03:39:22;95086.83;;;15.84;54.28
49915;BME280;35806;47.958;13.158;2023-08-12T03:41:50;95085.10;;;16.10;54.47
49915;BME280;35806;47.958;13.158;2023-08-12T03:44:17;95082.33;;;16.26;55.30
49915;BME280;35806;47.958;13.158;2023-08-12T03:46:45;95081.72;;;16.06;54.98
49915;BME280;35806;47.958;13.158;2023-08-12T03:49:12;95084.24;;;15.74;53.45
49915;BME280;35806;47.958;13.158;2023-08-12T03:51:40;95082.14;;;16.14;54.16
49915;BME280;35806;47.958;13.158;2023-08-12T03:54:08;95079.12;;;15.48;53.17
49915;BME280;35806;47.958;13.158;2023-08-12T03:56:35;95078.67;;;15.62;53.72
49915;BME280;35806;47.958;13.158;2023-08-12T03:59:03;95074.11;;;15.69;54.31
49915;BME280;35806;47.958;13.158;2023-08-12T04:01:30;95070.79;;;15.61;55.84
49915;BME280;35806;47.958;13.158;2023-08-12T04:03:58;95069.92;;;15.91;55.41
49915;BME280;35806;47.958;13.158;2023-08-12T04:06:25;95067.26;;;15.58;56.30
49915;BME280;35806;47.958;13.158;2023-08-12T04:08:53;95068.50;;;16.30;55.49
49915;BME280;35806;47.958;13.158;2023-08-12T04:11:20;95070.95;;;15.69;55.34
49915;BME280;35806;47.958;13.158;2023-08-12T04:13:47;95071.00;;;16.11;56.48
49915;BME280;35806;47.958;13.158;2023-08-12T04:16:20;95071.14;;;16.18;56.28
49915;BME280;35806;47.958;13.158;2023-08-12T04:18:46;95069.07;;;16.36;56.64
49915;BME280;35806;47.958;13.158;2023-08-12T04:21:14;95070.59;;;16.45;56.16
49915;BME280;35806;47.958;13.158;2023-08-12T04:23:41;95068.42;;;16.48;55.47
49915;BME280;35806;47.958;13.158;2023-08-12T04:26:09;95067.06;;;16.23;56.31
49915;BME280;35806;47.958;13.158;2023-08-12T04:28:37;95066.82;;;16.24;55.92
49915;BME280;35806;47.958;13.158;2023-08-12T04:31:06;95065.69;;;16.39;56.05
49915;BME280;35806;47.958;13.158;2023-08-12T04:33:33;95065.82;;;15.98;56.52
49915;BME280;35806;47.958;13.158;2023-08-12T04:36:07;95062.67;;;16.31;56.18
49915;BME280;35806;47.958;13.158;2023-08-12T04:38:34;95061.91;;;16.33;56.62
49915;BME280;35806;47.958;13.158;2023-08-12T04:41:01;95057.88;;;16.54;56.56
49915;BME280;35806;47.958;13.158;2023-08-12T04:43:29;95057.13;;;16.30;56.75
49915;BME280;35806;47.958;13.158;2023-08-12T04:45:56;95056.01;;;16.46;56.20
49915;BME280;35806;47.958;13.158;2023-08-12T04:48:24;95053.24;;;16.53;56.72
49915;BME280;35806;47.958;13.158;2023-08-12T04:50:51;95050.21;;;16.65;56.76
49915;BME280;35806;47.958;13.158;2023-08-12T04:53:18;95053.48;;;16.62;56.21
49915;BME280;35806;47.958;13.158;2023-08-12T04:55:50;95053.61;;;16.95;56.71
49915;BME280;35806;47.958;13.158;2023-08-12T04:58:17;95054.27;;;17.17;56.64
49915;BME280;35806;47.958;13.158;2023-08-12T05:00:44;95051.80;;;17.04;56.56
49915;BME280;35806;47.958;13.158;2023-08-12T05:03:11;95051.09;;;17.49;56.28
49915;BME280;35806;47.958;13.158;2023-08-12T05:05:39;95049.59;;;17.61;56.07
49915;BME280;35806;47.958;13.158;2023-08-12T05:08:06;95051.01;;;17.68;56.04
49915;BME280;35806;47.958;13.158;2023-08-12T05:10:34;95050.36;;;17.60;55.89
49915;BME280;35806;47.958;13.158;2023-08-12T05:13:02;95051.01;;;17.66;56.20
49915;BME280;35806;47.958;13.158;2023-08-12T05:15:29;95048.93;;;17.94;56.33
49915;BME280;35806;47.958;13.158;2023-08-12T05:17:57;95047.54;;;18.13;56.03
49915;BME280;35806;47.958;13.158;2023-08-12T05:20:24;95049.82;;;18.49;55.65
49915;BME280;35806;47.958;13.158;2023-08-12T05:22:52;95049.34;;;18.62;55.41
49915;BME280;35806;47.958;13.158;2023-08-12T05:25:19;95046.78;;;18.58;54.44
49915;BME280;35806;47.958;13.158;2023-08-12T05:27:46;95045.61;;;19.00;53.83
49915;BME280;35806;47.958;13.158;2023-08-12T05:30:13;95047.73;;;18.98;53.50
49915;BME280;35806;47.958;13.158;2023-08-12T05:32:41;95048.71;;;18.98;53.75
49915;BME280;35806;47.958;13.158;2023-08-12T05:35:09;95048.09;;;19.19;53.28
49915;BME280;35806;47.958;13.158;2023-08-12T05:37:36;95048.88;;;19.20;51.91
49915;BME280;35806;47.958;13.158;2023-08-12T05:40:05;95043.22;;;19.51;51.79
49915;BME280;35806;47.958;13.158;2023-08-12T05:42:32;95045.78;;;19.87;51.03
49915;BME280;35806;47.958;13.158;2023-08-12T05:44:59;95043.42;;;19.97;50.52
49915;BME280;35806;47.958;13.158;2023-08-12T05:47:27;95048.28;;;19.58;50.04
49915;BME280;35806;47.958;13.158;2023-08-12T05:49:54;95051.80;;;19.85;50.80
49915;BME280;35806;47.958;13.158;2023-08-12T05:52:22;95051.30;;;19.99;49.43
49915;BME280;35806;47.958;13.158;2023-08-12T05:54:49;95050.29;;;20.07;48.38
49915;BME280;35806;47.958;13.158;2023-08-12T05:57:18;95051.60;;;20.02;48.42
49915;BME280;35806;47.958;13.158;2023-08-12T05:59:44;95052.20;;;20.45;47.62
49915;BME280;35806;47.958;13.158;2023-08-12T06:02:12;95051.21;;;20.50;47.59
49915;BME280;35806;47.958;13.158;2023-08-12T06:04:39;95052.97;;;20.74;46.74
49915;BME280;35806;47.958;13.158;2023-08-12T06:07:07;95051.59;;;20.68;46.01
49915;BME280;35806;47.958;13.158;2023-08-12T06:09:34;95053.13;;;20.88;45.35
49915;BME280;35806;47.958;13.158;2023-08-12T06:12:02;95053.18;;;21.01;47.15
49915;BME280;35806;47.958;13.158;2023-08-12T06:14:30;95054.54;;;21.01;47.33
49915;BME280;35806;47.958;13.158;2023-08-12T06:16:57;95055.41;;;21.21;44.63
49915;BME280;35806;47.958;13.158;2023-08-12T06:19:25;95056.06;;;21.65;45.10
49915;BME280;35806;47.958;13.158;2023-08-12T06:21:52;95057.19;;;21.82;45.09
49915;BME280;35806;47.958;13.158;2023-08-12T06:24:20;95054.82;;;21.61;45.30
49915;BME280;35806;47.958;13.158;2023-08-12T06:26:47;95054.24;;;22.21;44.75
49915;BME280;35806;47.958;13.158;2023-08-12T06:29:16;95056.38;;;22.34;44.94
49915;BME280;35806;47.958;13.158;2023-08-12T06:31:44;95052.82;;;22.57;44.58
49915;BME280;35806;47.958;13.158;2023-08-12T06:34:17;95053.95;;;22.10;44.19
49915;BME280;35806;47.958;13.158;2023-08-12T06:36:44;95053.20;;;22.21;43.98
49915;BME280;35806;47.958;13.158;2023-08-12T06:39:11;95060.30;;;22.67;42.19
49915;BME280;35806;47.958;13.158;2023-08-12T06:41:39;95059.17;;;22.21;43.59
49915;BME280;35806;47.958;13.158;2023-08-12T06:44:06;95057.49;;;22.64;42.23
49915;BME280;35806;47.958;13.158;2023-08-12T06:46:34;95054.37;;;22.42;42.11
49915;BME280;35806;47.958;13.158;2023-08-12T06:49:01;95049.79;;;22.67;42.39
49915;BME280;35806;47.958;13.158;2023-08-12T06:51:29;95046.56;;;22.52;42.53
49915;BME280;35806;47.958;13.158;2023-08-12T06:53:55;95043.36;;;23.14;41.70
49915;BME280;35806;47.958;13.158;2023-08-12T06:56:23;95044.53;;;23.17;41.40
49915;BME280;35806;47.958;13.158;2023-08-12T06:58:50;95046.10;;;23.58;41.18
49915;BME280;35806;47.958;13.158;2023-08-12T07:01:18;95045.39;;;23.48;40.34
49915;BME280;35806;47.958;13.158;2023-08-12T07:03:45;95042.81;;;23.62;40.34
49915;BME280;35806;47.958;13.158;2023-08-12T07:06:12;95044.41;;;23.69;40.38
49915;BME280;35806;47.958;13.158;2023-08-12T07:08:39;95046.18;;;23.79;40.13
49915;BME280;35806;47.958;13.158;2023-08-12T07:11:07;95047.21;;;23.86;39.70
49915;BME280;35806;47.958;13.158;2023-08-12T07:13:35;95048.27;;;23.98;40.68
49915;BME280;35806;47.958;13.158;2023-08-12T07:16:02;95048.82;;;24.02;40.09
49915;BME280;35806;47.958;13.158;2023-08-12T07:18:29;95044.21;;;24.07;40.27
49915;BME280;35806;47.958;13.158;2023-08-12T07:20:57;95037.34;;;24.67;39.67
49915;BME280;35806;47.958;13.158;2023-08-12T07:23:24;95037.95;;;24.47;39.01
49915;BME280;35806;47.958;13.158;2023-08-12T07:25:52;95039.85;;;24.15;39.85
49915;BME280;35806;47.958;13.158;2023-08-12T07:28:20;95038.14;;;24.38;39.14
49915;BME280;35806;47.958;13.158;2023-08-12T07:30:48;95040.54;;;24.64;38.91
49915;BME280;35806;47.958;13.158;2023-08-12T07:33:20;95038.39;;;25.29;39.26
49915;BME280;35806;47.958;13.158;2023-08-12T07:35:48;95042.07;;;25.37;38.56
49915;BME280;35806;47.958;13.158;2023-08-12T07:38:16;95038.41;;;25.29;38.75
49915;BME280;35806;47.958;13.158;2023-08-12T07:40:44;95039.55;;;25.25;38.42
49915;BME280;35806;47.958;13.158;2023-08-12T07:43:11;95039.54;;;25.25;38.16
49915;BME280;35806;47.958;13.158;2023-08-12T07:45:39;95036.47;;;25.85;38.76
49915;BME280;35806;47.958;13.158;2023-08-12T07:48:06;95034.84;;;25.58;39.10
49915;BME280;35806;47.958;13.158;2023-08-12T07:50:34;95034.40;;;26.52;37.95
49915;BME280;35806;47.958;13.158;2023-08-12T07:53:01;95036.91;;;26.52;37.37
49915;BME280;35806;47.958;13.158;2023-08-12T07:55:29;95038.73;;;26.45;36.49
49915;BME280;35806;47.958;13.158;2023-08-12T07:57:56;95037.94;;;26.28;37.42
49915;BME280;35806;47.958;13.158;2023-08-12T08:00:24;95036.42;;;26.64;37.36
49915;BME280;35806;47.958;13.158;2023-08-12T08:02:51;95036.07;;;26.71;36.19
49915;BME280;35806;47.958;13.158;2023-08-12T08:05:18;95035.31;;;26.73;36.22
49915;BME280;35806;47.958;13.158;2023-08-12T08:07:45;95031.87;;;27.23;36.32
49915;BME280;35806;47.958;13.158;2023-08-12T08:10:13;95033.62;;;26.75;37.87
49915;BME280;35806;47.958;13.158;2023-08-12T08:14:49;95027.77;;;26.35;37.92
49915;BME280;35806;47.958;13.158;2023-08-12T08:17:17;95026.50;;;27.38;37.57
49915;BME280;35806;47.958;13.158;2023-08-12T08:19:44;95027.86;;;27.16;37.48
49915;BME280;35806;47.958;13.158;2023-08-12T08:22:11;95023.43;;;27.38;38.57
49915;BME280;35806;47.958;13.158;2023-08-12T08:24:39;95021.50;;;27.81;37.53
49915;BME280;35806;47.958;13.158;2023-08-12T08:27:06;95025.60;;;27.94;37.32
49915;BME280;35806;47.958;13.158;2023-08-12T08:29:34;95020.02;;;28.48;36.68
49915;BME280;35806;47.958;13.158;2023-08-12T08:32:01;95022.58;;;28.37;36.26
49915;BME280;35806;47.958;13.158;2023-08-12T08:34:29;95022.57;;;28.07;35.89
49915;BME280;35806;47.958;13.158;2023-08-12T08:36:56;95017.71;;;27.64;36.86
49915;BME280;35806;47.958;13.158;2023-08-12T08:39:23;95018.06;;;27.90;38.20
49915;BME280;35806;47.958;13.158;2023-08-12T08:41:53;95016.47;;;27.70;35.48
49915;BME280;35806;47.958;13.158;2023-08-12T08:44:22;95016.88;;;27.80;34.91
49915;BME280;35806;47.958;13.158;2023-08-12T08:46:52;95016.64;;;27.98;34.38
49915;BME280;35806;47.958;13.158;2023-08-12T08:49:20;95015.07;;;28.18;33.86
49915;BME280;35806;47.958;13.158;2023-08-12T08:51:48;95017.59;;;28.68;32.68
49915;BME280;35806;47.958;13.158;2023-08-12T08:54:17;95016.86;;;28.56;33.68
49915;BME280;35806;47.958;13.158;2023-08-12T08:56:45;95017.07;;;28.96;33.22
49915;BME280;35806;47.958;13.158;2023-08-12T08:59:15;95016.54;;;29.24;33.62
49915;BME280;35806;47.958;13.158;2023-08-12T09:01:43;95016.14;;;28.86;33.24
49915;BME280;35806;47.958;13.158;2023-08-12T09:04:13;95018.39;;;29.06;31.65
49915;BME280;35806;47.958;13.158;2023-08-12T09:06:43;95023.28;;;29.75;31.42
49915;BME280;35806;47.958;13.158;2023-08-12T09:09:12;95024.97;;;30.15;30.65
49915;BME280;35806;47.958;13.158;2023-08-12T09:11:41;95026.22;;;30.17;32.69
49915;BME280;35806;47.958;13.158;2023-08-12T09:14:08;95027.19;;;29.62;29.98
49915;BME280;35806;47.958;13.158;2023-08-12T09:16:35;95028.39;;;30.16;32.31
49915;BME280;35806;47.958;13.158;2023-08-12T09:19:04;95031.04;;;29.86;30.70
49915;BME280;35806;47.958;13.158;2023-08-12T09:21:32;95030.03;;;29.52;29.29
49915;BME280;35806;47.958;13.158;2023-08-12T09:24:03;95031.79;;;28.48;28.42
49915;BME280;35806;47.958;13.158;2023-08-12T09:26:31;95032.51;;;28.97;30.04
49915;BME280;35806;47.958;13.158;2023-08-12T09:28:59;95031.06;;;28.61;30.61
49915;BME280;35806;47.958;13.158;2023-08-12T09:31:27;95031.42;;;29.03;29.99
49915;BME280;35806;47.958;13.158;2023-08-12T09:33:58;95031.96;;;28.66;30.14
49915;BME280;35806;47.958;13.158;2023-08-12T09:36:28;95027.75;;;29.04;29.02
49915;BME280;35806;47.958;13.158;2023-08-12T09:38:56;95026.89;;;28.67;28.24
49915;BME280;35806;47.958;13.158;2023-08-12T09:41:24;95024.74;;;28.83;28.71
49915;BME280;35806;47.958;13.158;2023-08-12T09:43:51;95021.69;;;29.40;30.49
49915;BME280;35806;47.958;13.158;2023-08-12T09:46:18;95021.69;;;28.85;28.39
49915;BME280;35806;47.958;13.158;2023-08-12T09:48:49;95022.81;;;29.93;26.36
49915;BME280;35806;47.958;13.158;2023-08-12T09:51:17;95023.34;;;30.02;26.11
49915;BME280;35806;47.958;13.158;2023-08-12T09:53:44;95023.27;;;30.05;27.87
49915;BME280;35806;47.958;13.158;2023-08-12T09:56:12;95023.25;;;30.11;27.00
49915;BME280;35806;47.958;13.158;2023-08-12T09:58:40;95026.42;;;30.42;26.69
49915;BME280;35806;47.958;13.158;2023-08-12T10:01:08;95027.24;;;30.63;27.75
49915;BME280;35806;47.958;13.158;2023-08-12T10:03:37;95023.17;;;30.49;28.20
49915;BME280;35806;47.958;13.158;2023-08-12T10:06:05;95023.89;;;30.92;25.33
49915;BME280;35806;47.958;13.158;2023-08-12T10:08:34;95020.70;;;31.25;25.10
49915;BME280;35806;47.958;13.158;2023-08-12T10:11:02;95018.67;;;30.84;26.73
49915;BME280;35806;47.958;13.158;2023-08-12T10:13:29;95016.12;;;30.89;26.51
49915;BME280;35806;47.958;13.158;2023-08-12T10:15:57;95016.18;;;30.65;27.52
49915;BME280;35806;47.958;13.158;2023-08-12T10:18:26;95015.70;;;30.94;25.98
49915;BME280;35806;47.958;13.158;2023-08-12T10:20:57;95013.81;;;30.97;26.31
49915;BME280;35806;47.958;13.158;2023-08-12T10:23:24;95007.56;;;31.36;25.89
49915;BME280;35806;47.958;13.158;2023-08-12T10:25:54;95009.76;;;31.12;26.56
49915;BME280;35806;47.958;13.158;2023-08-12T10:28:22;95009.70;;;30.97;27.70
49915;BME280;35806;47.958;13.158;2023-08-12T10:30:49;95008.58;;;31.17;26.76
49915;BME280;35806;47.958;13.158;2023-08-12T10:33:17;95010.36;;;31.57;25.01
49915;BME280;35806;47.958;13.158;2023-08-12T10:35:44;95011.85;;;31.37;26.43
49915;BME280;35806;47.958;13.158;2023-08-12T10:38:16;95009.97;;;31.19;25.71
49915;BME280;35806;47.958;13.158;2023-08-12T10:40:44;95013.02;;;32.09;23.34
49915;BME280;35806;47.958;13.158;2023-08-12T10:43:11;95012.24;;;31.70;24.92
49915;BME280;35806;47.958;13.158;2023-08-12T10:45:47;95010.94;;;31.12;27.53
49915;BME280;35806;47.958;13.158;2023-08-12T10:48:18;95010.15;;;31.51;25.35
49915;BME280;35806;47.958;13.158;2023-08-12T10:50:45;95005.85;;;31.48;26.82
49915;BME280;35806;47.958;13.158;2023-08-12T10:53:32;95002.31;;;31.38;26.07
49915;BME280;35806;47.958;13.158;2023-08-12T10:56:01;95002.11;;;31.05;27.98
49915;BME280;35806;47.958;13.158;2023-08-12T10:58:34;95006.65;;;30.49;27.07
49915;BME280;35806;47.958;13.158;2023-08-12T11:01:01;95004.64;;;30.57;26.67
49915;BME280;35806;47.958;13.158;2023-08-12T11:03:32;95000.34;;;31.17;26.80
49915;BME280;35806;47.958;13.158;2023-08-12T11:06:00;94999.39;;;31.42;28.20
49915;BME280;35806;47.958;13.158;2023-08-12T11:08:28;94999.08;;;31.32;26.02
49915;BME280;35806;47.958;13.158;2023-08-12T11:10:56;94999.14;;;31.67;27.71
49915;BME280;35806;47.958;13.158;2023-08-12T11:13:26;94998.58;;;31.48;27.62
49915;BME280;35806;47.958;13.158;2023-08-12T11:16:05;94996.90;;;31.26;28.37
49915;BME280;35806;47.958;13.158;2023-08-12T11:18:38;94996.19;;;31.69;29.18
49915;BME280;35806;47.958;13.158;2023-08-12T11:21:06;94991.99;;;31.38;27.73
49915;BME280;35806;47.958;13.158;2023-08-12T11:23:34;94989.28;;;31.51;28.75
49915;BME280;35806;47.958;13.158;2023-08-12T11:26:03;94986.63;;;31.46;29.10
49915;BME280;35806;47.958;13.158;2023-08-12T11:28:29;94987.30;;;31.11;28.68
49915;BME280;35806;47.958;13.158;2023-08-12T11:30:57;94987.17;;;30.75;28.06
49915;BME280;35806;47.958;13.158;2023-08-12T11:33:24;94984.95;;;30.67;28.96
49915;BME280;35806;47.958;13.158;2023-08-12T11:35:52;94980.04;;;31.23;27.65
49915;BME280;35806;47.958;13.158;2023-08-12T11:38:20;94981.68;;;30.98;31.45
49915;BME280;35806;47.958;13.158;2023-08-12T11:40:50;94986.09;;;31.09;30.44
49915;BME280;35806;47.958;13.158;2023-08-12T11:43:21;94981.90;;;31.19;29.52
49915;BME280;35806;47.958;13.158;2023-08-12T11:45:48;94980.92;;;30.00;30.36
49915;BME280;35806;47.958;13.158;2023-08-12T11:48:16;94982.50;;;30.94;31.24
49915;BME280;35806;47.958;13.158;2023-08-12T11:50:43;94978.66;;;30.62;29.73
49915;BME280;35806;47.958;13.158;2023-08-12T11:53:11;94979.47;;;31.45;28.80
49915;BME280;35806;47.958;13.158;2023-08-12T11:55:38;94974.76;;;31.48;28.01
49915;BME280;35806;47.958;13.158;2023-08-12T11:58:06;94972.26;;;31.87;26.39
49915;BME280;35806;47.958;13.158;2023-08-12T12:00:33;94976.86;;;32.32;25.62
49915;BME280;35806;47.958;13.158;2023-08-12T12:03:01;94974.91;;;32.43;28.53
49915;BME280;35806;47.958;13.158;2023-08-12T12:05:29;94975.45;;;32.70;26.34
49915;BME280;35806;47.958;13.158;2023-08-12T12:07:56;94979.93;;;32.40;26.71
49915;BME280;35806;47.958;13.158;2023-08-12T12:10:27;94978.27;;;31.91;27.04
49915;BME280;35806;47.958;13.158;2023-08-12T12:12:55;94980.57;;;31.44;25.58
49915;BME280;35806;47.958;13.158;2023-08-12T12:15:23;94978.53;;;30.88;25.64
49915;BME280;35806;47.958;13.158;2023-08-12T12:17:51;94978.22;;;30.52;27.86
49915;BME280;35806;47.958;13.158;2023-08-12T12:20:19;94975.92;;;30.03;29.08
49915;BME280;35806;47.958;13.158;2023-08-12T12:22:47;94974.34;;;30.18;28.30
49915;BME280;35806;47.958;13.158;2023-08-12T12:25:17;94970.02;;;30.29;29.49
49915;BME280;35806;47.958;13.158;2023-08-12T12:27:45;94973.35;;;30.53;27.16
49915;BME280;35806;47.958;13.158;2023-08-12T12:30:14;94968.74;;;30.70;28.80
49915;BME280;35806;47.958;13.158;2023-08-12T12:32:42;94970.36;;;31.13;28.01
49915;BME280;35806;47.958;13.158;2023-08-12T12:35:09;94969.27;;;31.30;26.92
49915;BME280;35806;47.958;13.158;2023-08-12T12:37:37;94968.00;;;31.69;26.97
49915;BME280;35806;47.958;13.158;2023-08-12T12:40:06;94968.64;;;31.39;27.39
49915;BME280;35806;47.958;13.158;2023-08-12T12:42:33;94965.19;;;31.55;25.55
49915;BME280;35806;47.958;13.158;2023-08-12T12:45:01;94966.70;;;31.67;26.46
49915;BME280;35806;47.958;13.158;2023-08-12T12:47:33;94962.81;;;31.55;26.66
49915;BME280;35806;47.958;13.158;2023-08-12T12:50:00;94960.75;;;31.63;25.94
49915;BME280;35806;47.958;13.158;2023-08-12T12:52:27;94961.62;;;32.31;26.17
49915;BME280;35806;47.958;13.158;2023-08-12T12:54:55;94963.03;;;32.38;26.00
49915;BME280;35806;47.958;13.158;2023-08-12T12:57:22;94962.26;;;32.13;26.86
49915;BME280;35806;47.958;13.158;2023-08-12T12:59:50;94966.79;;;32.43;27.52
49915;BME280;35806;47.958;13.158;2023-08-12T13:02:18;94969.44;;;31.70;27.87
49915;BME280;35806;47.958;13.158;2023-08-12T13:04:45;94973.09;;;31.09;28.44
49915;BME280;35806;47.958;13.158;2023-08-12T13:07:12;94972.76;;;31.45;28.50
49915;BME280;35806;47.958;13.158;2023-08-12T13:09:40;94966.34;;;31.27;28.04